General O'Brien, Argentina
Current Conditions -  °F | °C
As of 1:00 AM on Sunday 23 Nov 2014 (Local Time) from SAEZ Reporting Station
Clear Clear  
Wind Chill: 18°   Ceiling: Unl
Heat Index: 18°   Visibility: 6mi
Dew Point: 11°   Wind: 6mph
Humidity: 64%   Direction: 340°NNW
Pressure: 29.88"   Gusts: NA
Location:  34.91°S, 60.63°W
Report Text: SAEZ 230400Z 34005KT CAVOK 18/11 Q1012
Loading
Personal Weather Stations






























Interactive Weather Map New forecast layout! Learn more

10-Day Weather Forecast

Advertisements
Track Severe Weather on mobile